sensor_id;sensor_type;location;lat;lon;timestamp;pressure;altitude;pressure_sealevel;temperature;humidity
7441;BME280;29616;51.950;8.572;2023-06-22T00:02:06;100347.81;;;18.28;100.00
7441;BME280;29616;51.950;8.572;2023-06-22T00:04:34;100338.28;;;18.31;100.00
7441;BME280;29616;51.950;8.572;2023-06-22T00:07:02;100333.56;;;18.31;100.00
7441;BME280;29616;51.950;8.572;2023-06-22T00:09:32;100334.91;;;18.35;100.00
7441;BME280;29616;51.950;8.572;2023-06-22T00:12:02;100330.78;;;18.31;100.00
7441;BME280;29616;51.950;8.572;2023-06-22T00:14:32;100325.88;;;18.27;100.00
7441;BME280;29616;51.950;8.572;2023-06-22T00:17:03;100326.34;;;18.30;100.00
7441;BME280;29616;51.950;8.572;2023-06-22T00:19:31;100320.19;;;18.35;100.00
7441;BME280;29616;51.950;8.572;2023-06-22T00:22:03;100320.72;;;18.45;100.00
7441;BME280;29616;51.950;8.572;2023-06-22T00:24:33;100311.38;;;18.46;100.00
7441;BME280;29616;51.950;8.572;2023-06-22T00:27:01;100318.72;;;18.53;100.00
7441;BME280;29616;51.950;8.572;2023-06-22T00:29:32;100304.41;;;18.50;100.00
7441;BME280;29616;51.950;8.572;2023-06-22T00:32:02;100318.25;;;18.50;100.00
7441;BME280;29616;51.950;8.572;2023-06-22T00:34:31;100311.19;;;18.47;100.00
7441;BME280;29616;51.950;8.572;2023-06-22T00:37:03;100317.59;;;18.48;100.00
7441;BME280;29616;51.950;8.572;2023-06-22T00:39:34;100317.00;;;18.52;100.00
7441;BME280;29616;51.950;8.572;2023-06-22T00:42:05;100305.91;;;18.52;100.00
7441;BME280;29616;51.950;8.572;2023-06-22T00:44:36;100313.00;;;18.55;100.00
7441;BME280;29616;51.950;8.572;2023-06-22T00:47:07;100298.03;;;18.49;100.00
7441;BME280;29616;51.950;8.572;2023-06-22T00:49:36;100276.59;;;18.37;100.00
7441;BME280;29616;51.950;8.572;2023-06-22T00:52:07;100288.19;;;18.47;100.00
7441;BME280;29616;51.950;8.572;2023-06-22T00:54:43;100291.66;;;18.49;100.00
7441;BME280;29616;51.950;8.572;2023-06-22T00:57:13;100295.56;;;18.61;100.00
7441;BME280;29616;51.950;8.572;2023-06-22T00:59:48;100296.22;;;18.63;100.00
7441;BME280;29616;51.950;8.572;2023-06-22T01:02:17;100278.72;;;18.56;100.00
7441;BME280;29616;51.950;8.572;2023-06-22T01:04:47;100277.66;;;18.57;100.00
7441;BME280;29616;51.950;8.572;2023-06-22T01:07:22;100276.81;;;18.56;100.00
7441;BME280;29616;51.950;8.572;2023-06-22T01:10:05;100271.06;;;18.58;100.00
7441;BME280;29616;51.950;8.572;2023-06-22T01:12:42;100292.50;;;18.77;100.00
7441;BME280;29616;51.950;8.572;2023-06-22T01:15:21;100285.63;;;18.94;100.00
7441;BME280;29616;51.950;8.572;2023-06-22T01:17:52;100283.63;;;19.16;100.00
7441;BME280;29616;51.950;8.572;2023-06-22T01:20:22;100286.25;;;19.30;100.00
7441;BME280;29616;51.950;8.572;2023-06-22T01:23:08;100285.66;;;19.35;100.00
7441;BME280;29616;51.950;8.572;2023-06-22T01:25:47;100284.47;;;19.16;100.00
7441;BME280;29616;51.950;8.572;2023-06-22T01:28:45;100294.09;;;19.20;100.00
7441;BME280;29616;51.950;8.572;2023-06-22T01:31:17;100293.81;;;19.09;100.00
7441;BME280;29616;51.950;8.572;2023-06-22T01:33:53;100288.25;;;19.02;100.00
7441;BME280;29616;51.950;8.572;2023-06-22T01:36:26;100280.81;;;19.09;100.00
7441;BME280;29616;51.950;8.572;2023-06-22T01:38:55;100305.81;;;19.22;100.00
7441;BME280;29616;51.950;8.572;2023-06-22T01:41:29;100293.69;;;19.23;100.00
7441;BME280;29616;51.950;8.572;2023-06-22T01:44:01;100293.94;;;19.28;100.00
7441;BME280;29616;51.950;8.572;2023-06-22T01:46:34;100280.81;;;19.44;100.00
7441;BME280;29616;51.950;8.572;2023-06-22T01:49:02;100271.69;;;19.50;100.00
7441;BME280;29616;51.950;8.572;2023-06-22T01:51:32;100280.06;;;19.63;100.00
7441;BME280;29616;51.950;8.572;2023-06-22T01:54:01;100284.38;;;19.78;100.00
7441;BME280;29616;51.950;8.572;2023-06-22T01:56:31;100279.28;;;19.82;100.00
7441;BME280;29616;51.950;8.572;2023-06-22T01:59:17;100277.34;;;19.76;100.00
7441;BME280;29616;51.950;8.572;2023-06-22T02:01:57;100270.25;;;19.67;100.00
7441;BME280;29616;51.950;8.572;2023-06-22T02:04:36;100276.28;;;19.77;100.00
7441;BME280;29616;51.950;8.572;2023-06-22T02:07:12;100289.97;;;19.85;100.00
7441;BME280;29616;51.950;8.572;2023-06-22T02:09:45;100285.28;;;19.92;100.00
7441;BME280;29616;51.950;8.572;2023-06-22T02:12:23;100280.59;;;19.92;100.00
7441;BME280;29616;51.950;8.572;2023-06-22T02:14:58;100278.69;;;19.93;100.00
7441;BME280;29616;51.950;8.572;2023-06-22T02:17:28;100296.84;;;20.02;100.00
7441;BME280;29616;51.950;8.572;2023-06-22T02:20:03;100284.28;;;20.06;100.00
7441;BME280;29616;51.950;8.572;2023-06-22T02:22:36;100290.03;;;20.11;100.00
7441;BME280;29616;51.950;8.572;2023-06-22T02:25:09;100299.84;;;20.07;100.00
7441;BME280;29616;51.950;8.572;2023-06-22T02:27:38;100290.22;;;20.03;100.00
7441;BME280;29616;51.950;8.572;2023-06-22T02:30:12;100290.22;;;20.03;100.00
7441;BME280;29616;51.950;8.572;2023-06-22T02:32:43;100281.47;;;20.00;100.00
7441;BME280;29616;51.950;8.572;2023-06-22T02:35:15;100293.66;;;20.05;100.00
7441;BME280;29616;51.950;8.572;2023-06-22T02:37:44;100300.69;;;20.01;100.00
7441;BME280;29616;51.950;8.572;2023-06-22T02:40:15;100293.41;;;20.00;100.00
7441;BME280;29616;51.950;8.572;2023-06-22T02:42:46;100292.97;;;19.96;100.00
7441;BME280;29616;51.950;8.572;2023-06-22T02:45:17;100291.69;;;19.99;100.00
7441;BME280;29616;51.950;8.572;2023-06-22T02:47:46;100290.66;;;20.07;100.00
7441;BME280;29616;51.950;8.572;2023-06-22T02:50:17;100290.69;;;20.13;100.00
7441;BME280;29616;51.950;8.572;2023-06-22T02:52:47;100293.91;;;20.17;100.00
7441;BME280;29616;51.950;8.572;2023-06-22T02:55:15;100290.47;;;20.15;100.00
7441;BME280;29616;51.950;8.572;2023-06-22T02:57:52;100289.84;;;20.19;100.00
7441;BME280;29616;51.950;8.572;2023-06-22T03:00:25;100286.84;;;20.21;100.00
7441;BME280;29616;51.950;8.572;2023-06-22T03:02:58;100300.72;;;20.21;100.00
7441;BME280;29616;51.950;8.572;2023-06-22T03:05:28;100287.47;;;20.10;100.00
7441;BME280;29616;51.950;8.572;2023-06-22T03:07:58;100275.94;;;20.06;100.00
7441;BME280;29616;51.950;8.572;2023-06-22T03:10:32;100289.16;;;20.04;100.00
7441;BME280;29616;51.950;8.572;2023-06-22T03:13:00;100284.06;;;20.08;100.00
7441;BME280;29616;51.950;8.572;2023-06-22T03:15:31;100286.19;;;20.06;100.00
7441;BME280;29616;51.950;8.572;2023-06-22T03:18:02;100293.41;;;20.07;100.00
7441;BME280;29616;51.950;8.572;2023-06-22T03:20:33;100293.00;;;20.03;100.00
7441;BME280;29616;51.950;8.572;2023-06-22T03:23:02;100292.16;;;20.03;100.00
7441;BME280;29616;51.950;8.572;2023-06-22T03:25:35;100296.84;;;20.02;100.00
7441;BME280;29616;51.950;8.572;2023-06-22T03:28:06;100284.06;;;20.01;100.00
7441;BME280;29616;51.950;8.572;2023-06-22T03:30:37;100275.50;;;20.03;100.00
7441;BME280;29616;51.950;8.572;2023-06-22T03:33:06;100279.78;;;20.05;100.00
7441;BME280;29616;51.950;8.572;2023-06-22T03:35:35;100277.22;;;20.10;100.00
7441;BME280;29616;51.950;8.572;2023-06-22T03:38:03;100273.81;;;20.15;100.00
7441;BME280;29616;51.950;8.572;2023-06-22T03:40:32;100272.97;;;20.14;100.00
7441;BME280;29616;51.950;8.572;2023-06-22T03:43:03;100274.25;;;20.18;100.00
7441;BME280;29616;51.950;8.572;2023-06-22T03:45:32;100273.63;;;20.16;100.00
7441;BME280;29616;51.950;8.572;2023-06-22T03:48:04;100267.06;;;20.30;100.00
7441;BME280;29616;51.950;8.572;2023-06-22T03:50:33;100282.22;;;20.41;100.00
7441;BME280;29616;51.950;8.572;2023-06-22T03:53:04;100273.25;;;20.45;100.00
7441;BME280;29616;51.950;8.572;2023-06-22T03:55:34;100274.75;;;20.54;100.00
7441;BME280;29616;51.950;8.572;2023-06-22T03:58:04;100258.97;;;20.48;100.00
7441;BME280;29616;51.950;8.572;2023-06-22T04:00:33;100274.13;;;20.59;100.00
7441;BME280;29616;51.950;8.572;2023-06-22T04:03:05;100268.75;;;20.58;100.00
7441;BME280;29616;51.950;8.572;2023-06-22T04:05:35;100261.94;;;20.67;100.00
7441;BME280;29616;51.950;8.572;2023-06-22T04:08:04;100261.31;;;20.65;100.00
7441;BME280;29616;51.950;8.572;2023-06-22T04:10:35;100267.06;;;20.70;100.00
7441;BME280;29616;51.950;8.572;2023-06-22T04:13:04;100274.09;;;20.66;100.00
7441;BME280;29616;51.950;8.572;2023-06-22T04:15:33;100279.88;;;20.71;100.00
7441;BME280;29616;51.950;8.572;2023-06-22T04:18:05;100277.34;;;20.76;100.00
7441;BME280;29616;51.950;8.572;2023-06-22T04:20:35;100276.44;;;20.82;100.00
7441;BME280;29616;51.950;8.572;2023-06-22T04:23:04;100288.41;;;21.02;100.00
7441;BME280;29616;51.950;8.572;2023-06-22T04:25:35;100295.06;;;21.07;100.00
7441;BME280;29616;51.950;8.572;2023-06-22T04:28:04;100282.84;;;21.08;100.00
7441;BME280;29616;51.950;8.572;2023-06-22T04:30:41;100285.84;;;21.13;100.00
7441;BME280;29616;51.950;8.572;2023-06-22T04:33:15;100274.53;;;21.15;100.00
7441;BME280;29616;51.950;8.572;2023-06-22T04:35:45;100284.78;;;21.08;100.00
7441;BME280;29616;51.950;8.572;2023-06-22T04:38:15;100281.34;;;21.06;100.00
7441;BME280;29616;51.950;8.572;2023-06-22T04:40:45;100279.44;;;21.13;100.00
7441;BME280;29616;51.950;8.572;2023-06-22T04:43:14;100277.72;;;21.12;100.00
7441;BME280;29616;51.950;8.572;2023-06-22T04:45:43;100280.28;;;21.20;100.00
7441;BME280;29616;51.950;8.572;2023-06-22T04:48:15;100286.22;;;21.30;100.00
7441;BME280;29616;51.950;8.572;2023-06-22T04:50:44;100281.97;;;21.34;100.00
7441;BME280;29616;51.950;8.572;2023-06-22T04:53:14;100274.06;;;21.31;100.00
7441;BME280;29616;51.950;8.572;2023-06-22T04:55:44;100273.56;;;21.47;100.00
7441;BME280;29616;51.950;8.572;2023-06-22T04:58:15;100266.06;;;21.48;100.00
7441;BME280;29616;51.950;8.572;2023-06-22T05:00:48;100267.34;;;21.52;100.00
7441;BME280;29616;51.950;8.572;2023-06-22T05:03:21;100254.94;;;21.54;100.00
7441;BME280;29616;51.950;8.572;2023-06-22T05:05:50;100265.13;;;21.73;100.00
7441;BME280;29616;51.950;8.572;2023-06-22T05:08:20;100276.84;;;21.89;100.00
7441;BME280;29616;51.950;8.572;2023-06-22T05:10:50;100257.03;;;22.10;100.00
7441;BME280;29616;51.950;8.572;2023-06-22T05:13:32;100276.31;;;22.36;100.00
7441;BME280;29616;51.950;8.572;2023-06-22T05:16:04;100276.28;;;22.43;100.00
7441;BME280;29616;51.950;8.572;2023-06-22T05:18:34;100269.56;;;22.57;100.00
7441;BME280;29616;51.950;8.572;2023-06-22T05:21:03;100264.31;;;22.91;100.00
7441;BME280;29616;51.950;8.572;2023-06-22T05:23:32;100263.28;;;23.11;100.00
7441;BME280;29616;51.950;8.572;2023-06-22T05:26:02;100261.22;;;23.61;100.00
7441;BME280;29616;51.950;8.572;2023-06-22T05:28:33;100256.00;;;23.82;100.00
7441;BME280;29616;51.950;8.572;2023-06-22T05:31:03;100269.63;;;23.90;100.00
7441;BME280;29616;51.950;8.572;2023-06-22T05:33:31;100265.16;;;23.89;100.00
7441;BME280;29616;51.950;8.572;2023-06-22T05:36:04;100251.38;;;24.24;100.00
7441;BME280;29616;51.950;8.572;2023-06-22T05:38:35;100256.72;;;24.26;100.00
7441;BME280;29616;51.950;8.572;2023-06-22T05:41:05;100252.38;;;24.41;100.00
7441;BME280;29616;51.950;8.572;2023-06-22T05:43:34;100255.81;;;24.55;100.00
7441;BME280;29616;51.950;8.572;2023-06-22T05:46:04;100248.66;;;24.70;100.00
7441;BME280;29616;51.950;8.572;2023-06-22T05:48:33;100254.06;;;24.84;100.00
7441;BME280;29616;51.950;8.572;2023-06-22T05:51:04;100265.84;;;25.20;100.00
7441;BME280;29616;51.950;8.572;2023-06-22T05:53:33;100270.72;;;25.48;100.00
7441;BME280;29616;51.950;8.572;2023-06-22T05:56:03;100277.91;;;25.44;100.00
7441;BME280;29616;51.950;8.572;2023-06-22T05:58:32;100281.81;;;25.20;100.00
7441;BME280;29616;51.950;8.572;2023-06-22T06:01:02;100271.59;;;25.25;100.00
7441;BME280;29616;51.950;8.572;2023-06-22T06:03:32;100280.91;;;25.43;100.00
7441;BME280;29616;51.950;8.572;2023-06-22T06:06:00;100287.84;;;25.63;100.00
7441;BME280;29616;51.950;8.572;2023-06-22T06:08:32;100283.97;;;25.41;100.00
7441;BME280;29616;51.950;8.572;2023-06-22T06:11:01;100287.63;;;25.30;100.00
7441;BME280;29616;51.950;8.572;2023-06-22T06:13:30;100293.19;;;25.42;100.00
7441;BME280;29616;51.950;8.572;2023-06-22T06:16:01;100281.19;;;25.41;100.00
7441;BME280;29616;51.950;8.572;2023-06-22T06:18:31;100287.84;;;25.63;100.00
7441;BME280;29616;51.950;8.572;2023-06-22T06:21:02;100292.97;;;25.31;100.00
7441;BME280;29616;51.950;8.572;2023-06-22T06:23:32;100286.66;;;25.24;100.00
7441;BME280;29616;51.950;8.572;2023-06-22T06:26:02;100284.59;;;25.08;100.00
7441;BME280;29616;51.950;8.572;2023-06-22T06:28:34;100279.81;;;24.86;100.00
7441;BME280;29616;51.950;8.572;2023-06-22T06:31:03;100296.97;;;25.12;100.00
7441;BME280;29616;51.950;8.572;2023-06-22T06:33:36;100294.81;;;25.14;100.00
7441;BME280;29616;51.950;8.572;2023-06-22T06:36:06;100282.03;;;25.18;100.00
7441;BME280;29616;51.950;8.572;2023-06-22T06:38:38;100287.47;;;25.37;100.00
7441;BME280;29616;51.950;8.572;2023-06-22T06:41:07;100287.03;;;25.63;100.00
7441;BME280;29616;51.950;8.572;2023-06-22T06:43:36;100293.81;;;25.67;100.00
7441;BME280;29616;51.950;8.572;2023-06-22T06:46:05;100272.47;;;25.89;100.00
7441;BME280;29616;51.950;8.572;2023-06-22T06:48:35;100274.91;;;26.25;100.00
7441;BME280;29616;51.950;8.572;2023-06-22T06:51:05;100292.19;;;26.51;100.00
7441;BME280;29616;51.950;8.572;2023-06-22T06:53:37;100279.31;;;26.66;100.00
7441;BME280;29616;51.950;8.572;2023-06-22T06:56:06;100286.72;;;27.05;100.00
7441;BME280;29616;51.950;8.572;2023-06-22T06:58:40;100276.94;;;26.91;100.00
7441;BME280;29616;51.950;8.572;2023-06-22T07:01:09;100286.06;;;26.98;100.00
7441;BME280;29616;51.950;8.572;2023-06-22T07:03:38;100280.75;;;26.85;100.00
7441;BME280;29616;51.950;8.572;2023-06-22T07:06:08;100285.84;;;26.72;100.00
7441;BME280;29616;51.950;8.572;2023-06-22T07:08:38;100285.47;;;26.52;100.00
7441;BME280;29616;51.950;8.572;2023-06-22T07:11:08;100269.66;;;25.89;100.00
7441;BME280;29616;51.950;8.572;2023-06-22T07:13:38;100278.41;;;25.92;100.00
7441;BME280;29616;51.950;8.572;2023-06-22T07:16:07;100284.75;;;25.88;100.00
7441;BME280;29616;51.950;8.572;2023-06-22T07:18:36;100282.34;;;25.80;100.00
7441;BME280;29616;51.950;8.572;2023-06-22T07:21:06;100284.53;;;25.78;100.00
7441;BME280;29616;51.950;8.572;2023-06-22T07:23:34;100282.81;;;25.77;100.00
7441;BME280;29616;51.950;8.572;2023-06-22T07:26:07;100284.53;;;25.78;100.00
7441;BME280;29616;51.950;8.572;2023-06-22T07:28:35;100286.78;;;25.92;100.00
7441;BME280;29616;51.950;8.572;2023-06-22T07:31:07;100276.56;;;25.98;100.00
7441;BME280;29616;51.950;8.572;2023-06-22T07:33:35;100269.16;;;25.92;100.00
7441;BME280;29616;51.950;8.572;2023-06-22T07:36:06;100280.38;;;25.92;100.00
7441;BME280;29616;51.950;8.572;2023-06-22T07:38:36;100276.44;;;25.93;100.00
7441;BME280;29616;51.950;8.572;2023-06-22T07:41:08;100278.78;;;25.84;100.00
7441;BME280;29616;51.950;8.572;2023-06-22T07:43:37;100261.66;;;25.81;100.00
7441;BME280;29616;51.950;8.572;2023-06-22T07:46:07;100275.97;;;25.96;100.00
7441;BME280;29616;51.950;8.572;2023-06-22T07:48:37;100280.41;;;25.80;100.00
7441;BME280;29616;51.950;8.572;2023-06-22T07:51:08;100270.94;;;25.70;100.00
7441;BME280;29616;51.950;8.572;2023-06-22T07:53:40;100263.97;;;25.72;100.00
7441;BME280;29616;51.950;8.572;2023-06-22T07:56:11;100256.72;;;25.60;100.00
7441;BME280;29616;51.950;8.572;2023-06-22T07:58:42;100264.94;;;25.78;100.00
7441;BME280;29616;51.950;8.572;2023-06-22T08:01:12;100262.28;;;25.71;100.00
7441;BME280;29616;51.950;8.572;2023-06-22T08:03:43;100253.16;;;25.76;100.00
7441;BME280;29616;51.950;8.572;2023-06-22T08:06:12;100275.66;;;25.69;100.00
7441;BME280;29616;51.950;8.572;2023-06-22T08:08:41;100263.50;;;25.64;100.00
7441;BME280;29616;51.950;8.572;2023-06-22T08:11:13;100273.41;;;25.55;100.00
7441;BME280;29616;51.950;8.572;2023-06-22T08:13:43;100272.94;;;25.46;100.00
7441;BME280;29616;51.950;8.572;2023-06-22T08:16:13;100275.56;;;25.53;100.00
7441;BME280;29616;51.950;8.572;2023-06-22T08:18:43;100274.63;;;25.87;100.00
7441;BME280;29616;51.950;8.572;2023-06-22T08:21:11;100273.56;;;26.44;100.00
7441;BME280;29616;51.950;8.572;2023-06-22T08:23:41;100260.41;;;26.62;100.00
7441;BME280;29616;51.950;8.572;2023-06-22T08:26:09;100265.59;;;26.70;100.00
7441;BME280;29616;51.950;8.572;2023-06-22T08:28:39;100260.81;;;26.82;100.00
7441;BME280;29616;51.950;8.572;2023-06-22T08:31:09;100237.75;;;27.13;100.00
7441;BME280;29616;51.950;8.572;2023-06-22T08:33:40;100228.25;;;27.74;100.00
7441;BME280;29616;51.950;8.572;2023-06-22T08:36:17;100218.16;;;29.17;100.00
7441;BME280;29616;51.950;8.572;2023-06-22T08:38:46;100216.44;;;30.50;100.00
7441;BME280;29616;51.950;8.572;2023-06-22T08:41:18;100199.44;;;29.37;100.00
7441;BME280;29616;51.950;8.572;2023-06-22T08:43:48;100234.13;;;28.74;100.00
7441;BME280;29616;51.950;8.572;2023-06-22T08:46:19;100218.84;;;28.97;100.00
7441;BME280;29616;51.950;8.572;2023-06-22T08:48:51;100231.66;;;29.20;100.00
7441;BME280;29616;51.950;8.572;2023-06-22T08:51:22;100233.13;;;28.91;100.00
7441;BME280;29616;51.950;8.572;2023-06-22T08:53:50;100229.97;;;29.19;100.00
7441;BME280;29616;51.950;8.572;2023-06-22T08:56:20;100212.88;;;28.89;100.00
7441;BME280;29616;51.950;8.572;2023-06-22T08:58:51;100215.00;;;28.71;100.00
7441;BME280;29616;51.950;8.572;2023-06-22T09:01:21;100214.69;;;28.68;100.00
7441;BME280;29616;51.950;8.572;2023-06-22T09:03:51;100201.31;;;28.85;100.00
7441;BME280;29616;51.950;8.572;2023-06-22T09:06:24;100202.53;;;28.99;100.00
7441;BME280;29616;51.950;8.572;2023-06-22T09:08:54;100206.25;;;29.10;100.00
7441;BME280;29616;51.950;8.572;2023-06-22T09:11:22;100196.66;;;29.01;100.00
7441;BME280;29616;51.950;8.572;2023-06-22T09:13:52;100197.25;;;28.66;100.00
7441;BME280;29616;51.950;8.572;2023-06-22T09:16:22;100206.59;;;28.18;100.00
7441;BME280;29616;51.950;8.572;2023-06-22T09:18:52;100206.84;;;27.95;100.00
7441;BME280;29616;51.950;8.572;2023-06-22T09:21:23;100194.25;;;28.51;100.00
7441;BME280;29616;51.950;8.572;2023-06-22T09:23:53;100199.25;;;28.70;100.00
7441;BME280;29616;51.950;8.572;2023-06-22T09:26:22;100205.31;;;28.94;100.00
7441;BME280;29616;51.950;8.572;2023-06-22T09:28:54;100207.44;;;29.14;100.00
7441;BME280;29616;51.950;8.572;2023-06-22T09:31:24;100199.50;;;29.06;100.00
7441;BME280;29616;51.950;8.572;2023-06-22T09:33:55;100205.91;;;29.01;100.00
7441;BME280;29616;51.950;8.572;2023-06-22T09:36:25;100214.09;;;29.03;100.00
7441;BME280;29616;51.950;8.572;2023-06-22T09:38:55;100203.03;;;29.28;100.00
7441;BME280;29616;51.950;8.572;2023-06-22T09:41:27;100201.09;;;28.92;100.00
7441;BME280;29616;51.950;8.572;2023-06-22T09:43:58;100208.66;;;29.28;100.00
7441;BME280;29616;51.950;8.572;2023-06-22T09:46:28;100198.56;;;29.32;100.00
7441;BME280;29616;51.950;8.572;2023-06-22T09:48:58;100196.44;;;30.87;100.00
7441;BME280;29616;51.950;8.572;2023-06-22T09:51:28;100191.69;;;30.92;100.00
7441;BME280;29616;51.950;8.572;2023-06-22T09:53:58;100186.00;;;30.77;100.00
7441;BME280;29616;51.950;8.572;2023-06-22T09:56:29;100169.66;;;31.78;100.00
7441;BME280;29616;51.950;8.572;2023-06-22T09:59:01;100169.88;;;31.92;100.00
7441;BME280;29616;51.950;8.572;2023-06-22T10:01:44;100173.13;;;31.65;100.00
7441;BME280;29616;51.950;8.572;2023-06-22T10:04:14;100173.69;;;31.62;100.00
7441;BME280;29616;51.950;8.572;2023-06-22T10:06:44;100159.94;;;31.46;100.00
7441;BME280;29616;51.950;8.572;2023-06-22T10:09:16;100165.53;;;31.61;100.00
7441;BME280;29616;51.950;8.572;2023-06-22T10:11:46;100159.09;;;31.35;100.00
7441;BME280;29616;51.950;8.572;2023-06-22T10:14:16;100173.81;;;31.91;100.00
7441;BME280;29616;51.950;8.572;2023-06-22T10:16:46;100148.56;;;32.15;100.00
7441;BME280;29616;51.950;8.572;2023-06-22T10:19:16;100164.47;;;32.06;100.00
7441;BME280;29616;51.950;8.572;2023-06-22T10:21:45;100174.25;;;32.91;100.00
7441;BME280;29616;51.950;8.572;2023-06-22T10:24:15;100168.28;;;33.92;100.00
7441;BME280;29616;51.950;8.572;2023-06-22T10:26:44;100164.31;;;33.70;100.00
7441;BME280;29616;51.950;8.572;2023-06-22T10:29:16;100164.41;;;33.65;100.00
7441;BME280;29616;51.950;8.572;2023-06-22T10:31:46;100169.63;;;34.19;100.00
7441;BME280;29616;51.950;8.572;2023-06-22T10:34:15;100162.00;;;33.95;100.00
7441;BME280;29616;51.950;8.572;2023-06-22T10:36:45;100154.25;;;33.82;100.00
7441;BME280;29616;51.950;8.572;2023-06-22T10:39:15;100154.72;;;33.89;100.00
7441;BME280;29616;51.950;8.572;2023-06-22T10:41:47;100148.13;;;34.31;100.00
7441;BME280;29616;51.950;8.572;2023-06-22T10:44:19;100151.59;;;34.28;97.44
7441;BME280;29616;51.950;8.572;2023-06-22T10:46:49;100146.81;;;34.05;100.00
7441;BME280;29616;51.950;8.572;2023-06-22T10:49:18;100138.78;;;34.12;100.00
7441;BME280;29616;51.950;8.572;2023-06-22T10:51:47;100120.28;;;33.11;100.00
7441;BME280;29616;51.950;8.572;2023-06-22T10:54:16;100118.84;;;32.85;100.00
7441;BME280;29616;51.950;8.572;2023-06-22T10:56:47;100117.63;;;32.28;100.00
7441;BME280;29616;51.950;8.572;2023-06-22T10:59:18;100120.31;;;31.66;100.00
7441;BME280;29616;51.950;8.572;2023-06-22T11:01:50;100109.84;;;31.66;100.00
7441;BME280;29616;51.950;8.572;2023-06-22T11:04:19;100082.91;;;31.84;100.00
7441;BME280;29616;51.950;8.572;2023-06-22T11:06:49;100097.06;;;31.79;100.00
7441;BME280;29616;51.950;8.572;2023-06-22T11:09:17;100094.81;;;31.76;100.00
7441;BME280;29616;51.950;8.572;2023-06-22T11:11:56;100106.88;;;31.38;100.00
7441;BME280;29616;51.950;8.572;2023-06-22T11:14:30;100102.84;;;31.54;100.00
7441;BME280;29616;51.950;8.572;2023-06-22T11:17:02;100098.91;;;31.45;100.00
7441;BME280;29616;51.950;8.572;2023-06-22T11:19:33;100084.88;;;31.30;100.00
7441;BME280;29616;51.950;8.572;2023-06-22T11:22:03;100078.13;;;31.20;100.00
7441;BME280;29616;51.950;8.572;2023-06-22T11:24:34;100084.97;;;31.04;100.00
7441;BME280;29616;51.950;8.572;2023-06-22T11:27:02;100081.34;;;30.69;100.00
7441;BME280;29616;51.950;8.572;2023-06-22T11:29:35;100079.41;;;30.59;100.00
7441;BME280;29616;51.950;8.572;2023-06-22T11:32:25;100077.16;;;30.56;100.00
7441;BME280;29616;51.950;8.572;2023-06-22T11:34:55;100068.72;;;30.41;100.00
7441;BME280;29616;51.950;8.572;2023-06-22T11:37:23;100070.38;;;30.62;100.00
7441;BME280;29616;51.950;8.572;2023-06-22T11:39:54;100066.72;;;30.21;100.00
7441;BME280;29616;51.950;8.572;2023-06-22T11:42:33;100047.56;;;30.08;100.00
7441;BME280;29616;51.950;8.572;2023-06-22T11:45:06;100053.47;;;29.81;100.00
7441;BME280;29616;51.950;8.572;2023-06-22T11:47:37;100037.06;;;29.63;100.00
7441;BME280;29616;51.950;8.572;2023-06-22T11:50:08;100046.63;;;29.62;100.00
7441;BME280;29616;51.950;8.572;2023-06-22T11:52:39;100033.38;;;29.42;100.00
7441;BME280;29616;51.950;8.572;2023-06-22T11:55:09;100038.78;;;29.74;100.00
7441;BME280;29616;51.950;8.572;2023-06-22T11:57:55;100029.72;;;29.52;100.00
7441;BME280;29616;51.950;8.572;2023-06-22T12:00:27;100024.72;;;29.64;100.00
7441;BME280;29616;51.950;8.572;2023-06-22T12:02:58;100025.81;;;29.48;100.00
7441;BME280;29616;51.950;8.572;2023-06-22T12:05:27;100018.38;;;29.17;100.00
7441;BME280;29616;51.950;8.572;2023-06-22T12:07:57;100026.88;;;29.22;100.00
7441;BME280;29616;51.950;8.572;2023-06-22T12:10:26;100027.81;;;28.96;100.00
7441;BME280;29616;51.950;8.572;2023-06-22T12:12:56;100031.50;;;29.01;100.00
7441;BME280;29616;51.950;8.572;2023-06-22T12:15:28;100027.69;;;28.65;100.00
7441;BME280;29616;51.950;8.572;2023-06-22T12:17:58;100032.09;;;28.56;100.00
7441;BME280;29616;51.950;8.572;2023-06-22T12:20:27;100034.44;;;28.27;100.00
7441;BME280;29616;51.950;8.572;2023-06-22T12:22:57;100036.06;;;27.92;100.00
7441;BME280;29616;51.950;8.572;2023-06-22T12:25:26;100043.59;;;27.54;100.00
7441;BME280;29616;51.950;8.572;2023-06-22T12:27:54;100052.41;;;27.41;100.00
7441;BME280;29616;51.950;8.572;2023-06-22T12:30:24;100043.34;;;27.34;100.00
7441;BME280;29616;51.950;8.572;2023-06-22T12:32:55;100049.38;;;27.21;100.00
7441;BME280;29616;51.950;8.572;2023-06-22T12:35:25;100054.84;;;27.11;100.00
7441;BME280;29616;51.950;8.572;2023-06-22T12:37:54;100067.13;;;27.05;100.00
7441;BME280;29616;51.950;8.572;2023-06-22T12:40:25;100059.03;;;26.87;100.00
7441;BME280;29616;51.950;8.572;2023-06-22T12:42:56;100060.47;;;26.73;100.00
7441;BME280;29616;51.950;8.572;2023-06-22T12:45:24;100065.66;;;26.64;100.00
7441;BME280;29616;51.950;8.572;2023-06-22T12:47:57;100067.38;;;26.65;100.00
7441;BME280;29616;51.950;8.572;2023-06-22T12:50:27;100053.94;;;26.67;100.00
7441;BME280;29616;51.950;8.572;2023-06-22T12:52:57;100042.44;;;26.64;100.00
7441;BME280;29616;51.950;8.572;2023-06-22T12:55:27;100042.81;;;26.51;100.00
7441;BME280;29616;51.950;8.572;2023-06-22T12:57:57;100034.50;;;26.39;100.00
7441;BME280;29616;51.950;8.572;2023-06-22T13:00:27;100022.53;;;26.10;100.00
7441;BME280;29616;51.950;8.572;2023-06-22T13:02:58;100001.41;;;25.69;100.00
7441;BME280;29616;51.950;8.572;2023-06-22T13:05:28;100011.38;;;25.20;100.00
7441;BME280;29616;51.950;8.572;2023-06-22T13:08:00;99994.25;;;24.77;100.00
7441;BME280;29616;51.950;8.572;2023-06-22T13:10:31;99979.03;;;24.33;100.00